createdAt,value
2023-06-29T00:01:36.873Z,2.88
2023-06-29T00:04:04.946Z,3.13
2023-06-29T00:06:37.503Z,3.40
2023-06-29T00:09:06.164Z,3.50
2023-06-29T00:11:34.488Z,3.08
2023-06-29T00:14:23.876Z,3.38
2023-06-29T00:16:55.663Z,3.25
2023-06-29T00:19:23.701Z,3.60
2023-06-29T00:21:51.474Z,3.30
2023-06-29T00:24:19.069Z,3.25
2023-06-29T00:26:46.773Z,3.60
2023-06-29T00:29:14.480Z,3.35
2023-06-29T00:31:42.227Z,3.60
2023-06-29T00:34:10.046Z,3.20
2023-06-29T00:36:37.842Z,3.20
2023-06-29T00:39:05.602Z,3.35
2023-06-29T00:41:33.282Z,3.42
2023-06-29T00:44:01.704Z,3.17
2023-06-29T00:46:31.416Z,3.85
2023-06-29T00:48:59.355Z,3.50
2023-06-29T00:51:27.843Z,3.05
2023-06-29T00:53:55.443Z,3.30
2023-06-29T00:56:23.072Z,3.15
2023-06-29T00:58:50.677Z,3.20
2023-06-29T01:01:19.056Z,3.55
2023-06-29T01:03:46.955Z,3.08
2023-06-29T01:06:16.174Z,3.50
2023-06-29T01:08:45.979Z,3.08
2023-06-29T01:11:14.664Z,3.13
2023-06-29T01:13:46.276Z,3.08
2023-06-29T01:16:16.133Z,2.80
2023-06-29T01:18:45.849Z,2.95
2023-06-29T01:21:14.049Z,2.70
2023-06-29T01:23:42.993Z,2.95
2023-06-29T01:26:12.414Z,3.28
2023-06-29T01:28:40.163Z,2.63
2023-06-29T01:31:12.516Z,3.22
2023-06-29T01:33:44.412Z,2.83
2023-06-29T01:36:21.923Z,3.00
2023-06-29T01:38:53.608Z,2.90
2023-06-29T01:41:22.571Z,2.40
2023-06-29T01:43:50.492Z,3.00
2023-06-29T01:46:19.127Z,3.15
2023-06-29T01:48:47.301Z,3.15
2023-06-29T01:51:15.151Z,2.67
2023-06-29T01:53:42.879Z,2.95
2023-06-29T01:56:10.558Z,3.20
2023-06-29T01:58:38.249Z,2.72
2023-06-29T02:01:09.402Z,3.30
2023-06-29T02:03:37.374Z,2.60
2023-06-29T02:06:05.421Z,2.85
2023-06-29T02:08:33.164Z,2.72
2023-06-29T02:11:01.900Z,2.90
2023-06-29T02:13:29.495Z,2.90
2023-06-29T02:15:57.156Z,3.25
2023-06-29T02:18:24.784Z,2.67
2023-06-29T02:20:53.432Z,2.75
2023-06-29T02:23:21.038Z,2.92
2023-06-29T02:25:51.044Z,2.70
2023-06-29T02:28:18.955Z,2.67
2023-06-29T02:30:46.634Z,2.85
2023-06-29T02:33:14.297Z,2.88
2023-06-29T02:35:42.242Z,3.17
2023-06-29T02:38:10.228Z,2.65
2023-06-29T02:40:37.915Z,2.88
2023-06-29T02:43:05.581Z,2.88
2023-06-29T02:45:33.176Z,2.40
2023-06-29T02:48:02.017Z,2.50
2023-06-29T02:50:29.931Z,2.97
2023-06-29T02:52:58.175Z,2.50
2023-06-29T02:55:26.136Z,2.83
2023-06-29T02:57:54.086Z,2.72
2023-06-29T03:00:22.303Z,2.47
2023-06-29T03:02:50.046Z,2.70
2023-06-29T03:05:17.692Z,2.80
2023-06-29T03:07:45.609Z,2.70
2023-06-29T03:10:13.527Z,2.70
2023-06-29T03:12:42.332Z,2.30
2023-06-29T03:15:10.238Z,2.40
2023-06-29T03:17:38.172Z,2.25
2023-06-29T03:20:07.553Z,2.25
2023-06-29T03:22:35.502Z,2.58
2023-06-29T03:25:04.713Z,2.55
2023-06-29T03:27:33.148Z,2.55
2023-06-29T03:30:00.736Z,2.40
2023-06-29T03:32:28.328Z,2.40
2023-06-29T03:34:55.918Z,2.50
2023-06-29T03:37:23.472Z,2.40
2023-06-29T03:39:51.009Z,2.88
2023-06-29T03:42:18.969Z,2.53
2023-06-29T03:44:46.705Z,2.63
2023-06-29T03:47:14.359Z,2.92
2023-06-29T03:49:41.912Z,3.17
2023-06-29T03:52:09.594Z,2.63
2023-06-29T03:54:37.295Z,2.40
2023-06-29T03:57:04.905Z,2.60
2023-06-29T03:59:32.602Z,2.35
2023-06-29T04:02:00.342Z,2.30
2023-06-29T04:04:28.010Z,2.60
2023-06-29T04:06:55.661Z,2.33
2023-06-29T04:09:23.305Z,2.00
2023-06-29T04:11:50.996Z,2.35
2023-06-29T04:14:18.699Z,2.20
2023-06-29T04:16:46.463Z,2.20
2023-06-29T04:19:16.193Z,2.10
2023-06-29T04:21:44.805Z,1.98
2023-06-29T04:24:13.867Z,2.45
2023-06-29T04:30:18.959Z,1.90
2023-06-29T04:32:48.017Z,1.67
2023-06-29T04:35:16.286Z,2.20
2023-06-29T04:37:44.018Z,1.73
2023-06-29T04:40:13.299Z,2.00
2023-06-29T04:42:47.659Z,1.90
2023-06-29T04:45:20.834Z,1.92
2023-06-29T04:47:52.276Z,2.38
2023-06-29T04:50:26.794Z,1.80
2023-06-29T04:52:57.742Z,2.23
2023-06-29T04:55:25.513Z,2.25
2023-06-29T04:57:53.348Z,1.60
2023-06-29T05:00:23.869Z,1.95
2023-06-29T05:02:51.540Z,2.00
2023-06-29T05:05:19.225Z,1.80
2023-06-29T05:07:46.869Z,1.65
2023-06-29T05:10:14.492Z,1.75
2023-06-29T05:12:42.080Z,1.90
2023-06-29T05:15:10.084Z,2.00
2023-06-29T05:17:38.641Z,2.10
2023-06-29T05:20:07.500Z,1.95
2023-06-29T05:22:35.172Z,1.80
2023-06-29T05:25:02.757Z,2.65
2023-06-29T05:27:30.291Z,2.20
2023-06-29T05:29:58.022Z,2.05
2023-06-29T05:32:27.567Z,1.70
2023-06-29T05:34:55.217Z,2.50
2023-06-29T05:37:22.811Z,2.00
2023-06-29T05:39:50.428Z,2.40
2023-06-29T05:42:18.016Z,2.22
2023-06-29T05:44:45.670Z,2.45
2023-06-29T05:47:13.289Z,2.10
2023-06-29T05:49:40.867Z,2.22
2023-06-29T05:52:08.468Z,1.80
2023-06-29T05:54:36.071Z,2.70
2023-06-29T05:57:03.737Z,2.08
2023-06-29T05:59:31.556Z,2.47
2023-06-29T06:01:59.228Z,2.30
2023-06-29T06:04:26.992Z,2.17
2023-06-29T06:06:54.678Z,2.22
2023-06-29T06:09:22.364Z,1.70
2023-06-29T06:11:50.121Z,2.20
2023-06-29T06:14:17.891Z,2.08
2023-06-29T06:16:45.541Z,1.70
2023-06-29T06:19:13.105Z,1.90
2023-06-29T06:21:41.544Z,1.40
2023-06-29T06:24:09.128Z,1.70
2023-06-29T06:26:36.876Z,1.75
2023-06-29T06:29:04.649Z,1.80
2023-06-29T06:31:34.236Z,1.80
2023-06-29T06:34:03.761Z,1.63
2023-06-29T06:36:31.777Z,1.73
2023-06-29T06:38:59.662Z,1.60
2023-06-29T06:41:27.301Z,1.65
2023-06-29T06:43:54.913Z,1.55
2023-06-29T06:46:24.233Z,1.55
2023-06-29T06:48:53.492Z,1.45
2023-06-29T06:51:21.306Z,1.63
2023-06-29T06:53:48.934Z,1.80
2023-06-29T06:56:16.537Z,1.88
2023-06-29T06:58:44.255Z,1.50
2023-06-29T07:01:12.786Z,1.85
2023-06-29T07:03:40.461Z,2.08
2023-06-29T07:06:08.082Z,2.30
2023-06-29T07:08:36.758Z,1.73
2023-06-29T07:11:04.530Z,1.90
2023-06-29T07:13:32.576Z,2.05
2023-06-29T07:16:00.195Z,1.77
2023-06-29T07:18:27.802Z,2.00
2023-06-29T07:25:56.798Z,1.58
2023-06-29T07:28:24.453Z,1.92
2023-06-29T07:30:52.840Z,1.85
2023-06-29T07:33:20.527Z,2.10
2023-06-29T07:35:48.636Z,2.15
2023-06-29T07:38:17.840Z,1.80
2023-06-29T07:40:49.514Z,1.60
2023-06-29T07:43:20.558Z,1.80
2023-06-29T07:45:48.182Z,1.60
2023-06-29T07:48:15.984Z,1.92
2023-06-29T07:50:43.963Z,1.90
2023-06-29T07:53:11.645Z,1.70
2023-06-29T07:55:39.267Z,1.63
2023-06-29T08:00:37.445Z,1.77
2023-06-29T08:03:06.406Z,1.73
2023-06-29T08:08:05.022Z,1.60
2023-06-29T08:10:32.919Z,1.77
2023-06-29T08:13:05.016Z,1.60
2023-06-29T08:15:33.636Z,1.63
2023-06-29T08:18:01.446Z,1.70
2023-06-29T08:20:29.333Z,1.83
2023-06-29T08:22:57.086Z,1.80
2023-06-29T08:25:49.487Z,1.45
2023-06-29T08:28:25.620Z,1.92
2023-06-29T08:30:53.353Z,1.63
2023-06-29T08:33:21.819Z,1.50
2023-06-29T08:35:49.596Z,1.50
2023-06-29T08:38:17.229Z,1.38
2023-06-29T08:40:47.449Z,1.60
2023-06-29T08:43:23.299Z,1.55
2023-06-29T08:45:54.112Z,1.52
2023-06-29T08:48:22.649Z,1.90
2023-06-29T08:50:55.452Z,1.40
2023-06-29T08:53:23.296Z,1.30
2023-06-29T08:55:51.685Z,1.50
2023-06-29T08:58:25.247Z,1.45
2023-06-29T09:00:57.272Z,1.60
2023-06-29T09:03:26.535Z,1.55
2023-06-29T09:05:57.143Z,1.70
2023-06-29T09:08:25.170Z,1.50
2023-06-29T09:10:53.268Z,1.70
2023-06-29T09:13:20.960Z,1.90
2023-06-29T09:15:49.604Z,1.75
2023-06-29T09:18:17.362Z,1.70
2023-06-29T09:20:45.582Z,1.92
2023-06-29T09:23:14.995Z,1.58
2023-06-29T09:25:42.670Z,1.80
2023-06-29T09:28:10.372Z,1.58
2023-06-29T09:30:39.264Z,1.67
2023-06-29T09:33:08.562Z,1.60
2023-06-29T09:35:37.216Z,1.40
2023-06-29T09:38:04.893Z,1.58
2023-06-29T09:40:32.621Z,1.55
2023-06-29T09:43:04.621Z,1.42
2023-06-29T09:45:32.992Z,1.70
2023-06-29T09:50:31.412Z,1.50
2023-06-29T09:52:59.167Z,1.48
2023-06-29T09:55:30.825Z,1.60
2023-06-29T09:57:59.290Z,1.70
2023-06-29T10:00:28.848Z,1.35
2023-06-29T10:02:56.605Z,1.73
2023-06-29T10:05:24.335Z,1.30
2023-06-29T10:07:55.379Z,1.98
2023-06-29T10:10:27.252Z,1.30
2023-06-29T10:12:58.859Z,1.27
2023-06-29T10:15:27.297Z,1.40
2023-06-29T10:18:01.542Z,1.35
2023-06-29T10:20:33.863Z,1.70
2023-06-29T10:23:04.192Z,1.60
2023-06-29T10:25:35.267Z,1.58
2023-06-29T10:28:03.375Z,1.67
2023-06-29T10:30:30.977Z,1.23
2023-06-29T10:32:59.315Z,1.30
2023-06-29T10:35:27.348Z,1.55
2023-06-29T10:37:58.876Z,1.70
2023-06-29T10:40:27.190Z,1.40
2023-06-29T10:42:56.021Z,1.70
2023-06-29T10:45:23.650Z,1.85
2023-06-29T10:47:57.505Z,1.40
2023-06-29T10:50:42.581Z,1.63
2023-06-29T10:53:11.810Z,1.27
2023-06-29T10:55:40.793Z,1.48
2023-06-29T10:58:14.239Z,1.70
2023-06-29T11:00:42.129Z,1.50
2023-06-29T11:03:11.256Z,1.85
2023-06-29T11:05:39.167Z,1.55
2023-06-29T11:08:11.079Z,1.70
2023-06-29T11:10:39.097Z,1.60
2023-06-29T11:13:10.763Z,1.73
2023-06-29T11:15:38.637Z,1.92
2023-06-29T11:18:08.000Z,1.48
2023-06-29T11:20:39.737Z,1.73
2023-06-29T11:23:08.502Z,1.60
2023-06-29T11:25:37.675Z,1.60
2023-06-29T11:28:05.540Z,1.65
2023-06-29T11:30:33.272Z,1.95
2023-06-29T11:33:05.263Z,1.73
2023-06-29T11:35:38.581Z,1.77
2023-06-29T11:38:06.316Z,2.00
2023-06-29T11:40:34.364Z,2.05
2023-06-29T11:43:04.477Z,2.00
2023-06-29T11:45:33.149Z,1.65
2023-06-29T11:48:02.180Z,1.70
2023-06-29T11:50:34.877Z,1.75
2023-06-29T11:53:02.599Z,1.90
2023-06-29T11:55:31.241Z,1.85
2023-06-29T11:58:00.620Z,2.13
2023-06-29T12:00:32.889Z,2.42
2023-06-29T12:03:08.140Z,2.13
2023-06-29T12:05:40.426Z,2.17
2023-06-29T12:08:10.087Z,2.15
2023-06-29T12:10:38.955Z,2.50
2023-06-29T12:13:07.234Z,2.40
2023-06-29T12:15:34.939Z,2.40
2023-06-29T12:18:10.517Z,2.92
2023-06-29T12:20:43.773Z,3.10
2023-06-29T12:23:13.486Z,2.60
2023-06-29T12:25:48.669Z,2.88
2023-06-29T12:28:17.958Z,2.47
2023-06-29T12:30:45.879Z,2.90
2023-06-29T12:33:15.023Z,2.50
2023-06-29T12:35:46.007Z,3.03
2023-06-29T12:38:14.041Z,2.13
2023-06-29T12:40:41.694Z,3.22
2023-06-29T12:43:09.237Z,2.90
2023-06-29T12:45:37.011Z,2.60
2023-06-29T12:48:05.279Z,2.67
2023-06-29T12:50:35.723Z,2.83
2023-06-29T12:53:04.074Z,2.83
2023-06-29T12:55:31.691Z,2.60
2023-06-29T12:57:59.398Z,2.70
2023-06-29T13:00:27.280Z,2.75
2023-06-29T13:02:55.488Z,2.85
2023-06-29T13:05:23.203Z,2.97
2023-06-29T13:07:50.869Z,2.30
2023-06-29T13:10:19.325Z,2.55
2023-06-29T13:12:46.947Z,2.35
2023-06-29T13:15:14.600Z,2.50
2023-06-29T13:17:43.249Z,2.92
2023-06-29T13:20:11.156Z,2.80
2023-06-29T13:22:38.727Z,2.80
2023-06-29T13:25:06.437Z,2.78
2023-06-29T13:27:34.745Z,2.60
2023-06-29T13:30:02.328Z,2.40
2023-06-29T13:32:30.017Z,2.30
2023-06-29T13:34:58.705Z,2.38
2023-06-29T13:37:26.338Z,2.67
2023-06-29T13:39:54.011Z,2.40
2023-06-29T13:42:21.603Z,2.70
2023-06-29T13:44:49.303Z,2.45
2023-06-29T13:47:21.434Z,2.20
2023-06-29T13:49:49.361Z,2.75
2023-06-29T13:52:17.288Z,2.45
2023-06-29T13:54:45.077Z,2.38
2023-06-29T13:57:12.725Z,2.80
2023-06-29T13:59:40.636Z,2.50
2023-06-29T14:02:08.522Z,2.30
2023-06-29T14:04:36.428Z,2.63
2023-06-29T14:07:04.381Z,2.75
2023-06-29T14:09:32.128Z,3.00
2023-06-29T14:12:00.913Z,2.70
2023-06-29T14:14:28.618Z,2.38
2023-06-29T14:16:56.701Z,2.45
2023-06-29T14:19:24.406Z,2.45
2023-06-29T14:21:52.010Z,2.90
2023-06-29T14:24:19.693Z,2.90
2023-06-29T14:26:47.756Z,2.40
2023-06-29T14:29:16.565Z,2.80
2023-06-29T14:31:44.417Z,2.88
2023-06-29T14:34:12.151Z,2.70
2023-06-29T14:36:39.948Z,2.33
2023-06-29T14:39:07.888Z,2.45
2023-06-29T14:41:36.391Z,2.60
2023-06-29T14:44:06.521Z,2.50
2023-06-29T14:46:35.024Z,2.50
2023-06-29T14:49:03.896Z,2.58
2023-06-29T14:51:31.817Z,2.83
2023-06-29T14:53:59.809Z,2.72
2023-06-29T14:56:28.376Z,2.40
2023-06-29T14:58:56.303Z,2.70
2023-06-29T15:01:24.667Z,2.60
2023-06-29T15:03:53.103Z,2.47
2023-06-29T15:06:21.484Z,2.42
2023-06-29T15:08:50.663Z,2.72
2023-06-29T15:11:22.094Z,2.67
2023-06-29T15:13:50.281Z,2.70
2023-06-29T15:16:18.480Z,2.47
2023-06-29T15:18:58.368Z,2.75
2023-06-29T15:21:27.911Z,2.60
2023-06-29T15:23:56.171Z,2.55
2023-06-29T15:26:25.916Z,2.92
2023-06-29T15:28:53.564Z,2.30
2023-06-29T15:31:21.691Z,2.63
2023-06-29T15:33:49.819Z,2.58
2023-06-29T15:36:17.822Z,2.50
2023-06-29T15:38:45.409Z,2.70
2023-06-29T15:41:12.987Z,2.65
2023-06-29T15:43:41.080Z,2.65
2023-06-29T15:46:08.833Z,2.67
2023-06-29T15:48:36.649Z,2.90
2023-06-29T15:51:05.292Z,2.10
2023-06-29T15:53:32.911Z,2.60
2023-06-29T15:56:00.488Z,2.30
2023-06-29T15:58:28.439Z,2.60
2023-06-29T16:00:56.022Z,2.53
2023-06-29T16:03:23.853Z,2.72
2023-06-29T16:05:51.597Z,2.80
2023-06-29T16:08:19.491Z,2.85
2023-06-29T16:10:48.642Z,2.35
2023-06-29T16:13:16.494Z,2.63
2023-06-29T16:15:44.342Z,2.60
2023-06-29T16:18:12.721Z,2.83
2023-06-29T16:20:40.336Z,2.60
2023-06-29T16:23:08.044Z,2.80
2023-06-29T16:25:35.644Z,3.25
2023-06-29T16:28:03.836Z,3.05
2023-06-29T16:30:36.144Z,2.47
2023-06-29T16:33:04.113Z,2.53
2023-06-29T16:35:31.733Z,2.75
2023-06-29T16:37:59.354Z,2.50
2023-06-29T16:40:27.063Z,2.90
2023-06-29T16:42:54.645Z,2.70
2023-06-29T16:45:22.324Z,2.70
2023-06-29T16:47:50.106Z,2.30
2023-06-29T16:50:17.739Z,2.75
2023-06-29T16:52:45.492Z,2.83
2023-06-29T16:55:13.127Z,2.67
2023-06-29T16:57:40.781Z,2.80
2023-06-29T17:00:09.196Z,2.70
2023-06-29T17:02:39.968Z,2.70
2023-06-29T17:05:08.041Z,3.47
2023-06-29T17:07:35.725Z,2.80
2023-06-29T17:10:03.678Z,2.80
2023-06-29T17:12:31.448Z,3.15
2023-06-29T17:14:59.058Z,3.10
2023-06-29T17:17:26.801Z,2.70
2023-06-29T17:19:54.528Z,2.67
2023-06-29T17:22:22.376Z,2.83
2023-06-29T17:24:49.956Z,2.97
2023-06-29T17:27:17.591Z,2.75
2023-06-29T17:29:49.359Z,2.95
2023-06-29T17:32:16.994Z,2.75
2023-06-29T17:34:44.665Z,2.70
2023-06-29T17:37:12.304Z,2.60
2023-06-29T17:39:39.954Z,2.80
2023-06-29T17:42:19.019Z,2.60
2023-06-29T17:44:47.160Z,2.60
2023-06-29T17:47:14.778Z,2.65
2023-06-29T17:49:43.250Z,2.80
2023-06-29T17:52:11.065Z,2.55
2023-06-29T17:54:39.438Z,3.25
2023-06-29T17:57:08.096Z,2.58
2023-06-29T17:59:36.536Z,2.70
2023-06-29T18:02:04.419Z,2.90
2023-06-29T18:04:33.069Z,2.90
2023-06-29T18:07:01.485Z,2.72
2023-06-29T18:09:29.417Z,2.85
2023-06-29T18:11:58.469Z,2.95
2023-06-29T18:14:26.121Z,2.70
2023-06-29T18:16:53.982Z,3.65
2023-06-29T18:19:21.807Z,3.65
2023-06-29T18:21:49.680Z,3.55
2023-06-29T18:24:18.497Z,3.10
2023-06-29T18:26:48.746Z,3.25
2023-06-29T18:29:42.393Z,3.00
2023-06-29T18:32:10.099Z,2.67
2023-06-29T18:34:37.754Z,3.17
2023-06-29T18:37:05.481Z,2.78
2023-06-29T18:39:33.460Z,2.60
2023-06-29T18:42:01.114Z,3.15
2023-06-29T18:44:28.813Z,3.08
2023-06-29T18:47:12.764Z,2.65
2023-06-29T18:49:51.467Z,2.50
2023-06-29T18:52:20.890Z,3.00
2023-06-29T18:54:48.984Z,2.53
2023-06-29T18:57:17.145Z,3.10
2023-06-29T18:59:45.580Z,3.30
2023-06-29T19:02:13.280Z,2.97
2023-06-29T19:04:41.195Z,3.22
2023-06-29T19:07:10.704Z,3.05
2023-06-29T19:09:38.776Z,2.78
2023-06-29T19:12:06.684Z,3.13
2023-06-29T19:14:34.334Z,2.97
2023-06-29T19:17:02.312Z,3.80
2023-06-29T19:19:30.085Z,3.40
2023-06-29T19:21:57.797Z,2.80
2023-06-29T19:24:25.502Z,2.97
2023-06-29T19:26:53.057Z,2.95
2023-06-29T19:29:20.768Z,2.60
2023-06-29T19:31:48.537Z,3.20
2023-06-29T19:34:16.268Z,3.90
2023-06-29T19:36:43.860Z,2.90
2023-06-29T19:39:11.579Z,2.53
2023-06-29T19:41:39.341Z,2.88
2023-06-29T19:44:07.403Z,3.63
2023-06-29T19:46:35.179Z,3.33
2023-06-29T19:49:02.952Z,3.25
2023-06-29T19:51:38.853Z,2.55
2023-06-29T19:54:06.742Z,2.80
2023-06-29T19:56:37.046Z,2.58
2023-06-29T19:59:04.881Z,2.33
2023-06-29T20:01:32.749Z,2.22
2023-06-29T20:04:58.888Z,2.03
2023-06-29T20:07:27.163Z,2.13
2023-06-29T20:09:55.028Z,2.33
2023-06-29T20:12:22.896Z,2.10
2023-06-29T20:14:50.471Z,2.40
2023-06-29T20:17:18.175Z,2.55
2023-06-29T20:19:45.954Z,2.30
2023-06-29T20:22:14.384Z,2.65
2023-06-29T20:24:42.267Z,2.42
2023-06-29T20:27:10.061Z,2.47
2023-06-29T20:29:38.083Z,2.47
2023-06-29T20:32:06.364Z,2.80
2023-06-29T20:34:35.581Z,2.60
2023-06-29T20:37:03.726Z,2.90
2023-06-29T20:39:31.458Z,2.67
2023-06-29T20:41:59.839Z,2.80
2023-06-29T20:44:33.774Z,2.50
2023-06-29T20:47:01.784Z,2.55
2023-06-29T20:49:30.550Z,3.30
2023-06-29T20:51:58.811Z,2.72
2023-06-29T20:54:27.130Z,2.30
2023-06-29T20:56:55.237Z,2.80
2023-06-29T20:59:22.864Z,2.72
2023-06-29T21:01:50.696Z,2.80
2023-06-29T21:04:18.851Z,2.83
2023-06-29T21:06:46.677Z,2.70
2023-06-29T21:09:14.343Z,2.97
2023-06-29T21:11:42.528Z,2.50
2023-06-29T21:14:10.318Z,2.75
2023-06-29T21:16:40.102Z,2.67
2023-06-29T21:19:08.116Z,2.40
2023-06-29T21:21:35.832Z,2.50
2023-06-29T21:24:03.818Z,2.72
2023-06-29T21:26:31.590Z,2.65
2023-06-29T21:29:02.242Z,2.50
2023-06-29T21:31:35.175Z,2.15
2023-06-29T21:34:03.050Z,2.70
2023-06-29T21:36:32.121Z,2.45
2023-06-29T21:39:02.411Z,2.72
2023-06-29T21:41:30.483Z,2.60
2023-06-29T21:43:58.374Z,2.33
2023-06-29T21:46:28.860Z,2.13
2023-06-29T21:51:29.878Z,2.63
2023-06-29T21:53:57.862Z,2.40
2023-06-29T21:56:27.454Z,1.83
2023-06-29T21:58:55.442Z,2.25
2023-06-29T22:01:24.669Z,2.10
2023-06-29T22:03:52.485Z,2.20
2023-06-29T22:06:20.209Z,1.85
2023-06-29T22:08:47.851Z,2.40
2023-06-29T22:11:18.365Z,2.20
2023-06-29T22:13:46.525Z,2.30
2023-06-29T22:20:13.911Z,2.45
2023-06-29T22:22:41.876Z,2.15
2023-06-29T22:25:09.873Z,2.50
2023-06-29T22:27:37.597Z,1.70
2023-06-29T22:30:05.489Z,2.42
2023-06-29T22:32:33.297Z,1.73
2023-06-29T22:35:01.122Z,1.80
2023-06-29T22:37:29.013Z,1.95
2023-06-29T22:39:57.286Z,1.95
2023-06-29T22:42:58.745Z,1.90
2023-06-29T22:45:31.045Z,2.10
2023-06-29T22:48:01.638Z,2.30
2023-06-29T22:50:29.373Z,2.08
2023-06-29T22:52:56.947Z,1.88
2023-06-29T22:55:24.721Z,2.00
2023-06-29T22:57:52.377Z,1.88
2023-06-29T23:00:20.198Z,1.80
2023-06-29T23:02:47.898Z,2.92
2023-06-29T23:05:16.241Z,2.25
2023-06-29T23:07:47.626Z,1.90
2023-06-29T23:10:15.757Z,1.80
2023-06-29T23:12:47.515Z,1.85
2023-06-29T23:15:16.310Z,2.00
2023-06-29T23:17:44.291Z,1.95
2023-06-29T23:20:13.890Z,1.60
2023-06-29T23:22:42.280Z,2.35
2023-06-29T23:25:10.284Z,2.00
2023-06-29T23:27:42.597Z,1.88
2023-06-29T23:30:19.483Z,1.77
2023-06-29T23:32:50.884Z,1.95
2023-06-29T23:35:19.210Z,1.70
2023-06-29T23:37:54.338Z,1.80
2023-06-29T23:40:21.944Z,1.98
2023-06-29T23:42:49.524Z,1.90
2023-06-29T23:45:17.526Z,2.00
2023-06-29T23:47:45.508Z,1.58
2023-06-29T23:50:14.179Z,1.90
2023-06-29T23:52:42.465Z,2.00
2023-06-29T23:55:12.670Z,2.00
2023-06-29T23:57:41.675Z,1.90
